sensor_id;sensor_type;location;lat;lon;timestamp;P1;durP1;ratioP1;P2;durP2;ratioP2
4921;SDS011;16625;53.624;10.106;2022-12-22T00:02:29;45.33;;;18.00;;
4921;SDS011;16625;53.624;10.106;2022-12-22T00:05:13;37.47;;;18.90;;
4921;SDS011;16625;53.624;10.106;2022-12-22T00:07:59;39.20;;;17.60;;
4921;SDS011;16625;53.624;10.106;2022-12-22T00:10:43;41.80;;;17.27;;
4921;SDS011;16625;53.624;10.106;2022-12-22T00:13:27;38.40;;;17.40;;
4921;SDS011;16625;53.624;10.106;2022-12-22T00:16:12;35.47;;;18.00;;
4921;SDS011;16625;53.624;10.106;2022-12-22T00:18:58;32.07;;;16.20;;
4921;SDS011;16625;53.624;10.106;2022-12-22T00:21:42;33.83;;;16.97;;
4921;SDS011;16625;53.624;10.106;2022-12-22T00:24:26;31.77;;;17.00;;
4921;SDS011;16625;53.624;10.106;2022-12-22T00:27:11;26.93;;;12.20;;
4921;SDS011;16625;53.624;10.106;2022-12-22T00:29:57;41.13;;;18.63;;
4921;SDS011;16625;53.624;10.106;2022-12-22T00:32:42;54.17;;;17.57;;
4921;SDS011;16625;53.624;10.106;2022-12-22T00:35:28;42.23;;;16.63;;
4921;SDS011;16625;53.624;10.106;2022-12-22T00:38:13;36.43;;;17.93;;
4921;SDS011;16625;53.624;10.106;2022-12-22T00:40:59;32.93;;;14.57;;
4921;SDS011;16625;53.624;10.106;2022-12-22T00:43:44;39.73;;;14.90;;
4921;SDS011;16625;53.624;10.106;2022-12-22T00:46:28;35.63;;;16.40;;
4921;SDS011;16625;53.624;10.106;2022-12-22T00:49:13;33.30;;;14.90;;
4921;SDS011;16625;53.624;10.106;2022-12-22T00:51:59;44.03;;;16.90;;
4921;SDS011;16625;53.624;10.106;2022-12-22T00:54:43;41.53;;;17.87;;
4921;SDS011;16625;53.624;10.106;2022-12-22T00:57:27;34.60;;;15.50;;
4921;SDS011;16625;53.624;10.106;2022-12-22T01:00:13;32.83;;;17.07;;
4921;SDS011;16625;53.624;10.106;2022-12-22T01:02:58;36.63;;;16.20;;
4921;SDS011;16625;53.624;10.106;2022-12-22T01:05:42;35.83;;;17.07;;
4921;SDS011;16625;53.624;10.106;2022-12-22T01:08:28;32.90;;;14.77;;
4921;SDS011;16625;53.624;10.106;2022-12-22T01:11:13;41.60;;;18.40;;
4921;SDS011;16625;53.624;10.106;2022-12-22T01:13:57;30.63;;;15.80;;
4921;SDS011;16625;53.624;10.106;2022-12-22T01:16:41;35.27;;;16.30;;
4921;SDS011;16625;53.624;10.106;2022-12-22T01:19:26;30.03;;;15.37;;
4921;SDS011;16625;53.624;10.106;2022-12-22T01:22:10;34.53;;;16.40;;
4921;SDS011;16625;53.624;10.106;2022-12-22T01:24:58;37.53;;;13.97;;
4921;SDS011;16625;53.624;10.106;2022-12-22T01:27:42;33.43;;;16.07;;
4921;SDS011;16625;53.624;10.106;2022-12-22T01:30:26;28.20;;;14.67;;
4921;SDS011;16625;53.624;10.106;2022-12-22T01:33:11;30.30;;;15.50;;
4921;SDS011;16625;53.624;10.106;2022-12-22T01:35:55;30.60;;;15.83;;
4921;SDS011;16625;53.624;10.106;2022-12-22T01:38:39;28.53;;;15.77;;
4921;SDS011;16625;53.624;10.106;2022-12-22T01:41:25;29.00;;;14.33;;
4921;SDS011;16625;53.624;10.106;2022-12-22T01:44:12;30.53;;;14.63;;
4921;SDS011;16625;53.624;10.106;2022-12-22T01:50:19;36.67;;;15.20;;
4921;SDS011;16625;53.624;10.106;2022-12-22T01:53:09;31.67;;;13.97;;
4921;SDS011;16625;53.624;10.106;2022-12-22T01:55:57;25.50;;;16.90;;
4921;SDS011;16625;53.624;10.106;2022-12-22T01:58:46;24.97;;;15.50;;
4921;SDS011;16625;53.624;10.106;2022-12-22T02:01:33;28.40;;;14.53;;
4921;SDS011;16625;53.624;10.106;2022-12-22T02:04:19;28.00;;;16.13;;
4921;SDS011;16625;53.624;10.106;2022-12-22T02:07:10;28.13;;;15.57;;
4921;SDS011;16625;53.624;10.106;2022-12-22T02:10:11;26.30;;;15.27;;
4921;SDS011;16625;53.624;10.106;2022-12-22T02:13:08;35.33;;;14.83;;
4921;SDS011;16625;53.624;10.106;2022-12-22T02:16:03;32.00;;;16.27;;
4921;SDS011;16625;53.624;10.106;2022-12-22T02:18:55;28.80;;;14.70;;
4921;SDS011;16625;53.624;10.106;2022-12-22T02:21:49;34.97;;;15.77;;
4921;SDS011;16625;53.624;10.106;2022-12-22T02:24:40;29.80;;;14.80;;
4921;SDS011;16625;53.624;10.106;2022-12-22T02:27:31;31.07;;;15.40;;
4921;SDS011;16625;53.624;10.106;2022-12-22T02:30:19;32.33;;;15.37;;
4921;SDS011;16625;53.624;10.106;2022-12-22T02:33:07;36.73;;;16.20;;
4921;SDS011;16625;53.624;10.106;2022-12-22T02:35:54;32.93;;;15.20;;
4921;SDS011;16625;53.624;10.106;2022-12-22T02:38:44;29.60;;;16.00;;
4921;SDS011;16625;53.624;10.106;2022-12-22T02:41:39;30.80;;;14.67;;
4921;SDS011;16625;53.624;10.106;2022-12-22T02:44:34;26.67;;;13.90;;
4921;SDS011;16625;53.624;10.106;2022-12-22T02:47:27;24.10;;;13.13;;
4921;SDS011;16625;53.624;10.106;2022-12-22T02:50:18;25.60;;;14.43;;
4921;SDS011;16625;53.624;10.106;2022-12-22T02:53:08;22.50;;;13.23;;
4921;SDS011;16625;53.624;10.106;2022-12-22T02:55:57;27.17;;;15.13;;
4921;SDS011;16625;53.624;10.106;2022-12-22T02:58:43;25.83;;;15.47;;
4921;SDS011;16625;53.624;10.106;2022-12-22T03:01:28;31.10;;;15.43;;
4921;SDS011;16625;53.624;10.106;2022-12-22T03:04:13;32.83;;;15.50;;
4921;SDS011;16625;53.624;10.106;2022-12-22T03:06:57;30.70;;;14.10;;
4921;SDS011;16625;53.624;10.106;2022-12-22T03:09:41;25.77;;;14.37;;
4921;SDS011;16625;53.624;10.106;2022-12-22T03:12:25;29.67;;;14.13;;
4921;SDS011;16625;53.624;10.106;2022-12-22T03:15:09;25.10;;;14.00;;
4921;SDS011;16625;53.624;10.106;2022-12-22T03:17:55;26.93;;;15.00;;
4921;SDS011;16625;53.624;10.106;2022-12-22T03:20:43;24.10;;;14.60;;
4921;SDS011;16625;53.624;10.106;2022-12-22T03:23:28;25.33;;;14.23;;
4921;SDS011;16625;53.624;10.106;2022-12-22T03:26:12;38.80;;;15.07;;
4921;SDS011;16625;53.624;10.106;2022-12-22T03:28:38;24.90;;;15.20;;
4921;SDS011;16625;53.624;10.106;2022-12-22T03:31:05;28.90;;;15.77;;
4921;SDS011;16625;53.624;10.106;2022-12-22T03:33:33;26.17;;;15.00;;
4921;SDS011;16625;53.624;10.106;2022-12-22T03:36:00;22.57;;;11.10;;
4921;SDS011;16625;53.624;10.106;2022-12-22T03:38:27;29.53;;;13.87;;
4921;SDS011;16625;53.624;10.106;2022-12-22T03:40:55;25.67;;;13.00;;
4921;SDS011;16625;53.624;10.106;2022-12-22T03:43:22;23.43;;;13.87;;
4921;SDS011;16625;53.624;10.106;2022-12-22T03:46:08;33.47;;;14.03;;
4921;SDS011;16625;53.624;10.106;2022-12-22T03:48:56;32.53;;;12.93;;
4921;SDS011;16625;53.624;10.106;2022-12-22T03:51:36;28.80;;;13.70;;
4921;SDS011;16625;53.624;10.106;2022-12-22T03:54:05;19.47;;;11.50;;
4921;SDS011;16625;53.624;10.106;2022-12-22T03:56:32;20.63;;;11.90;;
4921;SDS011;16625;53.624;10.106;2022-12-22T03:58:59;24.53;;;13.37;;
4921;SDS011;16625;53.624;10.106;2022-12-22T04:01:26;24.07;;;13.70;;
4921;SDS011;16625;53.624;10.106;2022-12-22T04:03:52;22.67;;;13.43;;
4921;SDS011;16625;53.624;10.106;2022-12-22T04:06:21;21.20;;;13.50;;
4921;SDS011;16625;53.624;10.106;2022-12-22T04:08:47;19.47;;;11.83;;
4921;SDS011;16625;53.624;10.106;2022-12-22T04:11:15;21.70;;;13.53;;
4921;SDS011;16625;53.624;10.106;2022-12-22T04:14:00;23.17;;;13.50;;
4921;SDS011;16625;53.624;10.106;2022-12-22T04:16:28;23.07;;;14.10;;
4921;SDS011;16625;53.624;10.106;2022-12-22T04:18:55;27.00;;;12.77;;
4921;SDS011;16625;53.624;10.106;2022-12-22T04:21:24;22.40;;;13.90;;
4921;SDS011;16625;53.624;10.106;2022-12-22T04:23:51;26.53;;;13.57;;
4921;SDS011;16625;53.624;10.106;2022-12-22T04:26:18;26.67;;;13.23;;
4921;SDS011;16625;53.624;10.106;2022-12-22T04:28:45;35.40;;;15.20;;
4921;SDS011;16625;53.624;10.106;2022-12-22T04:31:12;26.87;;;15.10;;
4921;SDS011;16625;53.624;10.106;2022-12-22T04:33:39;24.03;;;13.63;;
4921;SDS011;16625;53.624;10.106;2022-12-22T04:36:06;28.80;;;14.00;;
4921;SDS011;16625;53.624;10.106;2022-12-22T04:38:35;32.97;;;14.77;;
4921;SDS011;16625;53.624;10.106;2022-12-22T04:41:02;27.93;;;13.83;;
4921;SDS011;16625;53.624;10.106;2022-12-22T04:43:29;29.87;;;15.13;;
4921;SDS011;16625;53.624;10.106;2022-12-22T04:45:56;30.87;;;15.57;;
4921;SDS011;16625;53.624;10.106;2022-12-22T04:48:23;25.70;;;13.80;;
4921;SDS011;16625;53.624;10.106;2022-12-22T04:50:51;24.93;;;14.37;;
4921;SDS011;16625;53.624;10.106;2022-12-22T04:53:20;27.70;;;13.87;;
4921;SDS011;16625;53.624;10.106;2022-12-22T04:55:49;22.07;;;13.47;;
4921;SDS011;16625;53.624;10.106;2022-12-22T04:58:19;26.67;;;13.93;;
4921;SDS011;16625;53.624;10.106;2022-12-22T05:00:46;21.27;;;12.70;;
4921;SDS011;16625;53.624;10.106;2022-12-22T05:03:13;23.40;;;14.07;;
4921;SDS011;16625;53.624;10.106;2022-12-22T05:05:40;20.53;;;13.23;;
4921;SDS011;16625;53.624;10.106;2022-12-22T05:08:06;21.30;;;12.27;;
4921;SDS011;16625;53.624;10.106;2022-12-22T05:10:33;23.90;;;12.60;;
4921;SDS011;16625;53.624;10.106;2022-12-22T05:13:01;24.73;;;13.77;;
4921;SDS011;16625;53.624;10.106;2022-12-22T05:15:28;19.93;;;12.03;;
4921;SDS011;16625;53.624;10.106;2022-12-22T05:17:57;20.87;;;12.10;;
4921;SDS011;16625;53.624;10.106;2022-12-22T05:20:24;21.60;;;12.07;;
4921;SDS011;16625;53.624;10.106;2022-12-22T05:22:52;26.13;;;12.43;;
4921;SDS011;16625;53.624;10.106;2022-12-22T05:25:19;26.87;;;14.00;;
4921;SDS011;16625;53.624;10.106;2022-12-22T05:27:48;23.50;;;12.80;;
4921;SDS011;16625;53.624;10.106;2022-12-22T05:30:17;25.17;;;12.43;;
4921;SDS011;16625;53.624;10.106;2022-12-22T05:32:44;31.13;;;13.60;;
4921;SDS011;16625;53.624;10.106;2022-12-22T05:35:11;27.37;;;14.87;;
4921;SDS011;16625;53.624;10.106;2022-12-22T05:37:38;28.70;;;14.30;;
4921;SDS011;16625;53.624;10.106;2022-12-22T05:40:06;22.35;;;13.75;;
4921;SDS011;16625;53.624;10.106;2022-12-22T05:42:33;24.93;;;14.00;;
4921;SDS011;16625;53.624;10.106;2022-12-22T05:45:04;24.60;;;13.57;;
4921;SDS011;16625;53.624;10.106;2022-12-22T05:47:33;30.03;;;15.00;;
4921;SDS011;16625;53.624;10.106;2022-12-22T05:50:01;24.73;;;15.37;;
4921;SDS011;16625;53.624;10.106;2022-12-22T05:52:28;26.03;;;14.10;;
4921;SDS011;16625;53.624;10.106;2022-12-22T05:54:55;27.27;;;13.83;;
4921;SDS011;16625;53.624;10.106;2022-12-22T05:57:22;30.03;;;16.07;;
4921;SDS011;16625;53.624;10.106;2022-12-22T05:59:48;27.20;;;14.10;;
4921;SDS011;16625;53.624;10.106;2022-12-22T06:02:15;28.53;;;15.93;;
4921;SDS011;16625;53.624;10.106;2022-12-22T06:04:43;30.03;;;14.87;;
4921;SDS011;16625;53.624;10.106;2022-12-22T06:07:10;34.33;;;15.93;;
4921;SDS011;16625;53.624;10.106;2022-12-22T06:09:37;24.60;;;14.80;;
4921;SDS011;16625;53.624;10.106;2022-12-22T06:12:03;23.87;;;13.20;;
4921;SDS011;16625;53.624;10.106;2022-12-22T06:14:31;37.87;;;14.23;;
4921;SDS011;16625;53.624;10.106;2022-12-22T06:16:57;30.63;;;14.47;;
4921;SDS011;16625;53.624;10.106;2022-12-22T06:19:24;30.90;;;14.80;;
4921;SDS011;16625;53.624;10.106;2022-12-22T06:21:52;29.33;;;14.90;;
4921;SDS011;16625;53.624;10.106;2022-12-22T06:24:19;30.40;;;15.40;;
4921;SDS011;16625;53.624;10.106;2022-12-22T06:26:46;35.40;;;15.77;;
4921;SDS011;16625;53.624;10.106;2022-12-22T06:29:12;39.47;;;17.77;;
4921;SDS011;16625;53.624;10.106;2022-12-22T06:31:39;32.13;;;16.47;;
4921;SDS011;16625;53.624;10.106;2022-12-22T06:34:07;30.00;;;14.53;;
4921;SDS011;16625;53.624;10.106;2022-12-22T06:36:34;31.37;;;16.17;;
4921;SDS011;16625;53.624;10.106;2022-12-22T06:39:02;30.40;;;15.97;;
4921;SDS011;16625;53.624;10.106;2022-12-22T06:41:29;36.40;;;16.87;;
4921;SDS011;16625;53.624;10.106;2022-12-22T06:44:13;50.27;;;17.57;;
4921;SDS011;16625;53.624;10.106;2022-12-22T06:46:40;41.57;;;16.03;;
4921;SDS011;16625;53.624;10.106;2022-12-22T06:49:06;32.93;;;17.20;;
4921;SDS011;16625;53.624;10.106;2022-12-22T06:51:33;56.27;;;17.80;;
4921;SDS011;16625;53.624;10.106;2022-12-22T06:54:01;33.83;;;15.83;;
4921;SDS011;16625;53.624;10.106;2022-12-22T06:56:28;29.20;;;15.43;;
4921;SDS011;16625;53.624;10.106;2022-12-22T06:58:55;32.00;;;16.93;;
4921;SDS011;16625;53.624;10.106;2022-12-22T07:01:21;30.73;;;15.70;;
4921;SDS011;16625;53.624;10.106;2022-12-22T07:03:48;40.37;;;17.20;;
4921;SDS011;16625;53.624;10.106;2022-12-22T07:06:15;40.63;;;15.30;;
4921;SDS011;16625;53.624;10.106;2022-12-22T07:08:43;36.80;;;16.60;;
4921;SDS011;16625;53.624;10.106;2022-12-22T07:11:11;28.87;;;15.13;;
4921;SDS011;16625;53.624;10.106;2022-12-22T07:13:39;32.43;;;16.83;;
4921;SDS011;16625;53.624;10.106;2022-12-22T07:16:06;40.63;;;16.77;;
4921;SDS011;16625;53.624;10.106;2022-12-22T07:18:34;25.97;;;14.80;;
4921;SDS011;16625;53.624;10.106;2022-12-22T07:21:03;25.63;;;13.30;;
4921;SDS011;16625;53.624;10.106;2022-12-22T07:23:32;30.63;;;15.40;;
4921;SDS011;16625;53.624;10.106;2022-12-22T07:25:59;28.60;;;15.20;;
4921;SDS011;16625;53.624;10.106;2022-12-22T07:28:30;26.03;;;15.80;;
4921;SDS011;16625;53.624;10.106;2022-12-22T07:30:58;30.73;;;16.27;;
4921;SDS011;16625;53.624;10.106;2022-12-22T07:33:25;26.83;;;13.37;;
4921;SDS011;16625;53.624;10.106;2022-12-22T07:35:59;29.20;;;16.10;;
4921;SDS011;16625;53.624;10.106;2022-12-22T07:38:31;24.00;;;14.63;;
4921;SDS011;16625;53.624;10.106;2022-12-22T07:40:58;27.67;;;15.00;;
4921;SDS011;16625;53.624;10.106;2022-12-22T07:43:25;28.17;;;15.37;;
4921;SDS011;16625;53.624;10.106;2022-12-22T07:45:52;36.10;;;15.17;;
4921;SDS011;16625;53.624;10.106;2022-12-22T07:48:19;35.10;;;16.47;;
4921;SDS011;16625;53.624;10.106;2022-12-22T07:51:04;26.30;;;14.97;;
4921;SDS011;16625;53.624;10.106;2022-12-22T07:53:32;27.03;;;14.13;;
4921;SDS011;16625;53.624;10.106;2022-12-22T07:56:00;33.27;;;13.63;;
4921;SDS011;16625;53.624;10.106;2022-12-22T07:58:28;40.10;;;17.67;;
4921;SDS011;16625;53.624;10.106;2022-12-22T08:00:57;30.93;;;15.73;;
4921;SDS011;16625;53.624;10.106;2022-12-22T08:03:24;30.63;;;16.23;;
4921;SDS011;16625;53.624;10.106;2022-12-22T08:05:51;27.33;;;14.37;;
4921;SDS011;16625;53.624;10.106;2022-12-22T08:08:18;45.17;;;18.23;;
4921;SDS011;16625;53.624;10.106;2022-12-22T08:10:44;35.47;;;17.40;;
4921;SDS011;16625;53.624;10.106;2022-12-22T08:13:11;36.03;;;16.83;;
4921;SDS011;16625;53.624;10.106;2022-12-22T08:15:38;31.73;;;16.40;;
4921;SDS011;16625;53.624;10.106;2022-12-22T08:18:06;33.83;;;17.43;;
4921;SDS011;16625;53.624;10.106;2022-12-22T08:20:33;39.07;;;16.27;;
4921;SDS011;16625;53.624;10.106;2022-12-22T08:23:00;31.50;;;16.13;;
4921;SDS011;16625;53.624;10.106;2022-12-22T08:25:27;27.87;;;15.90;;
4921;SDS011;16625;53.624;10.106;2022-12-22T08:27:54;30.00;;;16.10;;
4921;SDS011;16625;53.624;10.106;2022-12-22T08:30:22;35.47;;;15.90;;
4921;SDS011;16625;53.624;10.106;2022-12-22T08:32:49;31.57;;;16.17;;
4921;SDS011;16625;53.624;10.106;2022-12-22T08:35:18;27.00;;;13.63;;
4921;SDS011;16625;53.624;10.106;2022-12-22T08:37:45;31.80;;;15.93;;
4921;SDS011;16625;53.624;10.106;2022-12-22T08:40:14;31.37;;;15.87;;
4921;SDS011;16625;53.624;10.106;2022-12-22T08:42:44;29.10;;;16.50;;
4921;SDS011;16625;53.624;10.106;2022-12-22T08:45:11;29.50;;;15.80;;
4921;SDS011;16625;53.624;10.106;2022-12-22T08:47:38;26.40;;;13.90;;
4921;SDS011;16625;53.624;10.106;2022-12-22T08:50:05;28.10;;;14.40;;
4921;SDS011;16625;53.624;10.106;2022-12-22T08:52:34;29.60;;;13.70;;
4921;SDS011;16625;53.624;10.106;2022-12-22T08:55:01;28.60;;;14.30;;
4921;SDS011;16625;53.624;10.106;2022-12-22T08:57:28;32.50;;;15.33;;
4921;SDS011;16625;53.624;10.106;2022-12-22T08:59:54;28.97;;;14.67;;
4921;SDS011;16625;53.624;10.106;2022-12-22T09:02:21;31.83;;;15.63;;
4921;SDS011;16625;53.624;10.106;2022-12-22T09:04:48;31.13;;;16.37;;
4921;SDS011;16625;53.624;10.106;2022-12-22T09:07:16;22.37;;;13.60;;
4921;SDS011;16625;53.624;10.106;2022-12-22T09:09:44;30.63;;;15.57;;
4921;SDS011;16625;53.624;10.106;2022-12-22T09:12:11;32.07;;;17.67;;
4921;SDS011;16625;53.624;10.106;2022-12-22T09:14:38;27.83;;;13.90;;
4921;SDS011;16625;53.624;10.106;2022-12-22T09:17:05;26.23;;;14.60;;
4921;SDS011;16625;53.624;10.106;2022-12-22T09:19:31;27.93;;;15.17;;
4921;SDS011;16625;53.624;10.106;2022-12-22T09:21:58;26.80;;;15.40;;
4921;SDS011;16625;53.624;10.106;2022-12-22T09:24:25;29.13;;;15.67;;
4921;SDS011;16625;53.624;10.106;2022-12-22T09:26:53;27.97;;;14.87;;
4921;SDS011;16625;53.624;10.106;2022-12-22T09:29:20;26.97;;;15.37;;
4921;SDS011;16625;53.624;10.106;2022-12-22T09:31:47;23.00;;;13.23;;
4921;SDS011;16625;53.624;10.106;2022-12-22T09:34:13;31.20;;;14.90;;
4921;SDS011;16625;53.624;10.106;2022-12-22T09:36:40;29.93;;;14.97;;
4921;SDS011;16625;53.624;10.106;2022-12-22T09:39:08;31.00;;;15.97;;
4921;SDS011;16625;53.624;10.106;2022-12-22T09:41:36;26.70;;;14.53;;
4921;SDS011;16625;53.624;10.106;2022-12-22T09:44:11;30.90;;;13.90;;
4921;SDS011;16625;53.624;10.106;2022-12-22T09:46:43;26.50;;;12.97;;
4921;SDS011;16625;53.624;10.106;2022-12-22T09:49:10;22.13;;;11.47;;
4921;SDS011;16625;53.624;10.106;2022-12-22T09:51:41;19.07;;;11.80;;
4921;SDS011;16625;53.624;10.106;2022-12-22T09:54:10;23.80;;;12.03;;
4921;SDS011;16625;53.624;10.106;2022-12-22T09:56:38;29.37;;;15.13;;
4921;SDS011;16625;53.624;10.106;2022-12-22T09:59:07;25.63;;;13.00;;
4921;SDS011;16625;53.624;10.106;2022-12-22T10:01:40;22.37;;;12.73;;
4921;SDS011;16625;53.624;10.106;2022-12-22T10:04:21;35.73;;;14.50;;
4921;SDS011;16625;53.624;10.106;2022-12-22T10:06:58;31.67;;;15.30;;
4921;SDS011;16625;53.624;10.106;2022-12-22T10:09:31;31.10;;;15.00;;
4921;SDS011;16625;53.624;10.106;2022-12-22T10:12:03;30.97;;;16.37;;
4921;SDS011;16625;53.624;10.106;2022-12-22T10:14:32;35.20;;;17.60;;
4921;SDS011;16625;53.624;10.106;2022-12-22T10:17:16;34.37;;;16.07;;
4921;SDS011;16625;53.624;10.106;2022-12-22T10:19:45;30.70;;;15.50;;
4921;SDS011;16625;53.624;10.106;2022-12-22T10:22:23;44.97;;;18.10;;
4921;SDS011;16625;53.624;10.106;2022-12-22T10:24:53;41.97;;;17.57;;
4921;SDS011;16625;53.624;10.106;2022-12-22T10:27:21;33.97;;;16.30;;
4921;SDS011;16625;53.624;10.106;2022-12-22T10:29:50;35.07;;;16.00;;
4921;SDS011;16625;53.624;10.106;2022-12-22T10:32:18;36.93;;;17.57;;
4921;SDS011;16625;53.624;10.106;2022-12-22T10:34:59;34.80;;;16.50;;
4921;SDS011;16625;53.624;10.106;2022-12-22T10:37:35;39.73;;;18.00;;
4921;SDS011;16625;53.624;10.106;2022-12-22T10:40:13;32.97;;;15.10;;
4921;SDS011;16625;53.624;10.106;2022-12-22T10:42:43;30.00;;;16.10;;
4921;SDS011;16625;53.624;10.106;2022-12-22T10:45:15;27.33;;;13.40;;
4921;SDS011;16625;53.624;10.106;2022-12-22T10:47:46;31.43;;;14.33;;
4921;SDS011;16625;53.624;10.106;2022-12-22T10:50:16;33.03;;;18.80;;
4921;SDS011;16625;53.624;10.106;2022-12-22T10:52:48;33.73;;;15.23;;
4921;SDS011;16625;53.624;10.106;2022-12-22T10:55:18;29.60;;;16.60;;
4921;SDS011;16625;53.624;10.106;2022-12-22T10:57:46;26.90;;;13.83;;
4921;SDS011;16625;53.624;10.106;2022-12-22T11:00:24;36.63;;;17.07;;
4921;SDS011;16625;53.624;10.106;2022-12-22T11:02:54;27.80;;;14.63;;
4921;SDS011;16625;53.624;10.106;2022-12-22T11:05:21;24.40;;;14.10;;
4921;SDS011;16625;53.624;10.106;2022-12-22T11:07:48;31.67;;;16.10;;
4921;SDS011;16625;53.624;10.106;2022-12-22T11:10:17;32.73;;;16.00;;
4921;SDS011;16625;53.624;10.106;2022-12-22T11:12:54;27.87;;;15.53;;
4921;SDS011;16625;53.624;10.106;2022-12-22T11:15:33;28.23;;;15.33;;
4921;SDS011;16625;53.624;10.106;2022-12-22T11:18:10;32.93;;;16.43;;
4921;SDS011;16625;53.624;10.106;2022-12-22T11:20:49;33.57;;;16.53;;
4921;SDS011;16625;53.624;10.106;2022-12-22T11:23:26;34.40;;;15.77;;
4921;SDS011;16625;53.624;10.106;2022-12-22T11:26:01;31.67;;;15.00;;
4921;SDS011;16625;53.624;10.106;2022-12-22T11:28:39;34.73;;;16.27;;
4921;SDS011;16625;53.624;10.106;2022-12-22T11:31:26;32.60;;;14.33;;
4921;SDS011;16625;53.624;10.106;2022-12-22T11:34:17;31.17;;;13.80;;
4921;SDS011;16625;53.624;10.106;2022-12-22T11:36:58;33.97;;;16.33;;
4921;SDS011;16625;53.624;10.106;2022-12-22T11:39:36;33.27;;;14.80;;
4921;SDS011;16625;53.624;10.106;2022-12-22T11:42:06;27.70;;;15.10;;
4921;SDS011;16625;53.624;10.106;2022-12-22T11:44:49;26.07;;;13.80;;
4921;SDS011;16625;53.624;10.106;2022-12-22T11:47:25;29.13;;;13.43;;
4921;SDS011;16625;53.624;10.106;2022-12-22T11:50:06;32.97;;;15.10;;
4921;SDS011;16625;53.624;10.106;2022-12-22T11:52:56;30.40;;;14.53;;
4921;SDS011;16625;53.624;10.106;2022-12-22T11:55:32;29.23;;;13.73;;
4921;SDS011;16625;53.624;10.106;2022-12-22T11:58:10;30.57;;;14.00;;
4921;SDS011;16625;53.624;10.106;2022-12-22T12:00:50;27.37;;;13.83;;
4921;SDS011;16625;53.624;10.106;2022-12-22T12:03:36;27.20;;;14.13;;
4921;SDS011;16625;53.624;10.106;2022-12-22T12:06:45;22.50;;;10.60;;
4921;SDS011;16625;53.624;10.106;2022-12-22T12:09:27;28.67;;;14.00;;
4921;SDS011;16625;53.624;10.106;2022-12-22T12:12:06;27.63;;;13.80;;
4921;SDS011;16625;53.624;10.106;2022-12-22T12:14:42;26.93;;;11.47;;
4921;SDS011;16625;53.624;10.106;2022-12-22T12:17:19;25.10;;;11.93;;
4921;SDS011;16625;53.624;10.106;2022-12-22T12:19:59;32.80;;;16.80;;
4921;SDS011;16625;53.624;10.106;2022-12-22T12:22:41;28.77;;;12.80;;
4921;SDS011;16625;53.624;10.106;2022-12-22T12:25:22;22.97;;;12.07;;
4921;SDS011;16625;53.624;10.106;2022-12-22T12:27:58;32.53;;;12.03;;
4921;SDS011;16625;53.624;10.106;2022-12-22T12:30:43;28.63;;;13.60;;
4921;SDS011;16625;53.624;10.106;2022-12-22T12:33:16;26.70;;;14.33;;
4921;SDS011;16625;53.624;10.106;2022-12-22T12:35:50;32.00;;;12.53;;
4921;SDS011;16625;53.624;10.106;2022-12-22T12:38:28;16.80;;;10.00;;
4921;SDS011;16625;53.624;10.106;2022-12-22T12:40:59;24.53;;;13.47;;
4921;SDS011;16625;53.624;10.106;2022-12-22T12:43:31;24.77;;;13.43;;
4921;SDS011;16625;53.624;10.106;2022-12-22T12:45:59;24.50;;;11.50;;
4921;SDS011;16625;53.624;10.106;2022-12-22T12:48:35;30.20;;;12.83;;
4921;SDS011;16625;53.624;10.106;2022-12-22T12:51:03;28.87;;;13.67;;
4921;SDS011;16625;53.624;10.106;2022-12-22T12:54:32;35.73;;;14.00;;
4921;SDS011;16625;53.624;10.106;2022-12-22T12:57:20;26.03;;;13.60;;
4921;SDS011;16625;53.624;10.106;2022-12-22T12:59:55;23.10;;;12.80;;
4921;SDS011;16625;53.624;10.106;2022-12-22T13:02:36;17.57;;;9.20;;
4921;SDS011;16625;53.624;10.106;2022-12-22T13:05:26;21.07;;;11.60;;
4921;SDS011;16625;53.624;10.106;2022-12-22T13:08:07;26.30;;;12.27;;
4921;SDS011;16625;53.624;10.106;2022-12-22T13:10:38;25.57;;;11.23;;
4921;SDS011;16625;53.624;10.106;2022-12-22T13:13:11;23.87;;;12.70;;
4921;SDS011;16625;53.624;10.106;2022-12-22T13:18:51;18.67;;;10.63;;
4921;SDS011;16625;53.624;10.106;2022-12-22T13:21:22;22.40;;;9.50;;
4921;SDS011;16625;53.624;10.106;2022-12-22T13:23:54;20.30;;;10.90;;
4921;SDS011;16625;53.624;10.106;2022-12-22T13:26:30;19.80;;;10.63;;
4921;SDS011;16625;53.624;10.106;2022-12-22T13:28:59;17.50;;;10.40;;
4921;SDS011;16625;53.624;10.106;2022-12-22T13:31:33;20.03;;;11.50;;
4921;SDS011;16625;53.624;10.106;2022-12-22T13:34:06;17.27;;;10.60;;
4921;SDS011;16625;53.624;10.106;2022-12-22T13:36:47;19.97;;;10.67;;
4921;SDS011;16625;53.624;10.106;2022-12-22T13:39:14;18.47;;;10.23;;
4921;SDS011;16625;53.624;10.106;2022-12-22T13:41:44;15.13;;;9.43;;
4921;SDS011;16625;53.624;10.106;2022-12-22T13:44:14;16.53;;;9.23;;
4921;SDS011;16625;53.624;10.106;2022-12-22T13:46:43;20.17;;;8.77;;
4921;SDS011;16625;53.624;10.106;2022-12-22T13:49:12;14.67;;;7.97;;
4921;SDS011;16625;53.624;10.106;2022-12-22T13:51:42;10.83;;;7.20;;
4921;SDS011;16625;53.624;10.106;2022-12-22T13:54:10;16.70;;;7.50;;
4921;SDS011;16625;53.624;10.106;2022-12-22T13:56:39;29.87;;;5.83;;
4921;SDS011;16625;53.624;10.106;2022-12-22T13:59:16;15.93;;;6.07;;
4921;SDS011;16625;53.624;10.106;2022-12-22T14:01:55;17.00;;;5.60;;
4921;SDS011;16625;53.624;10.106;2022-12-22T14:04:23;10.53;;;4.47;;
4921;SDS011;16625;53.624;10.106;2022-12-22T14:06:49;14.40;;;5.67;;
4921;SDS011;16625;53.624;10.106;2022-12-22T14:09:17;12.97;;;6.20;;
4921;SDS011;16625;53.624;10.106;2022-12-22T14:11:46;14.83;;;6.20;;
4921;SDS011;16625;53.624;10.106;2022-12-22T14:14:16;11.27;;;6.00;;
4921;SDS011;16625;53.624;10.106;2022-12-22T14:16:46;20.30;;;6.07;;
4921;SDS011;16625;53.624;10.106;2022-12-22T14:19:16;8.70;;;6.20;;
4921;SDS011;16625;53.624;10.106;2022-12-22T14:21:43;9.60;;;5.20;;
4921;SDS011;16625;53.624;10.106;2022-12-22T14:24:14;19.00;;;5.97;;
4921;SDS011;16625;53.624;10.106;2022-12-22T14:26:44;13.30;;;7.10;;
4921;SDS011;16625;53.624;10.106;2022-12-22T14:29:12;26.00;;;6.60;;
4921;SDS011;16625;53.624;10.106;2022-12-22T14:31:54;13.60;;;5.43;;
4921;SDS011;16625;53.624;10.106;2022-12-22T14:34:26;12.97;;;6.03;;
4921;SDS011;16625;53.624;10.106;2022-12-22T14:36:54;20.00;;;7.77;;
4921;SDS011;16625;53.624;10.106;2022-12-22T14:39:22;11.53;;;5.20;;
4921;SDS011;16625;53.624;10.106;2022-12-22T14:41:50;11.63;;;6.33;;
4921;SDS011;16625;53.624;10.106;2022-12-22T14:44:19;15.27;;;7.00;;
4921;SDS011;16625;53.624;10.106;2022-12-22T14:47:02;15.40;;;5.80;;
4921;SDS011;16625;53.624;10.106;2022-12-22T14:49:33;15.93;;;7.37;;
4921;SDS011;16625;53.624;10.106;2022-12-22T14:52:02;17.70;;;7.67;;
4921;SDS011;16625;53.624;10.106;2022-12-22T14:54:39;16.10;;;7.27;;
4921;SDS011;16625;53.624;10.106;2022-12-22T14:57:10;22.57;;;6.87;;
4921;SDS011;16625;53.624;10.106;2022-12-22T14:59:39;15.33;;;6.70;;
4921;SDS011;16625;53.624;10.106;2022-12-22T15:02:19;9.50;;;5.70;;
4921;SDS011;16625;53.624;10.106;2022-12-22T15:05:04;12.70;;;7.17;;
4921;SDS011;16625;53.624;10.106;2022-12-22T15:07:43;13.03;;;6.37;;
4921;SDS011;16625;53.624;10.106;2022-12-22T15:10:11;20.23;;;8.00;;
4921;SDS011;16625;53.624;10.106;2022-12-22T15:12:38;13.20;;;6.37;;